createdAt,value
2017-04-07T00:00:31.487Z,61.80
2017-04-07T00:01:35.195Z,60.30
2017-04-07T00:02:39.179Z,60.40
2017-04-07T00:03:42.812Z,58.00
2017-04-07T00:04:46.682Z,56.20
2017-04-07T00:05:51.386Z,60.00
2017-04-07T00:06:55.631Z,58.10
2017-04-07T00:08:01.455Z,58.30
2017-04-07T00:09:05.672Z,56.40
2017-04-07T00:10:09.470Z,57.40
2017-04-07T00:11:13.216Z,61.80
2017-04-07T00:12:17.107Z,61.00
2017-04-07T00:13:21.120Z,61.10
2017-04-07T00:14:24.789Z,56.90
2017-04-07T00:15:28.846Z,56.20
2017-04-07T00:16:33.468Z,55.80
2017-04-07T00:17:38.237Z,56.30
2017-04-07T00:18:42.198Z,57.70
2017-04-07T00:19:46.227Z,57.40
2017-04-07T00:20:50.070Z,58.50
2017-04-07T00:21:53.704Z,58.20
2017-04-07T00:22:57.246Z,58.90
2017-04-07T00:24:01.261Z,59.90
2017-04-07T00:25:04.973Z,59.60
2017-04-07T00:26:09.567Z,59.10
2017-04-07T00:27:13.103Z,59.10
2017-04-07T00:28:17.610Z,56.70
2017-04-07T00:29:21.485Z,59.10
2017-04-07T00:30:25.337Z,58.90
2017-04-07T00:31:29.475Z,58.40
2017-04-07T00:32:33.589Z,58.40
2017-04-07T00:33:37.146Z,57.20
2017-04-07T00:34:41.070Z,56.90
2017-04-07T00:35:44.594Z,58.30
2017-04-07T00:36:48.450Z,57.20
2017-04-07T00:37:52.325Z,56.30
2017-04-07T00:38:56.580Z,57.00
2017-04-07T00:40:00.392Z,56.70
2017-04-07T00:41:04.158Z,58.10
2017-04-07T00:42:07.897Z,58.10
2017-04-07T00:43:11.803Z,59.20
2017-04-07T00:44:15.368Z,59.10
2017-04-07T00:45:19.471Z,57.00
2017-04-07T00:46:23.615Z,57.40
2017-04-07T00:47:27.447Z,58.70
2017-04-07T00:48:31.154Z,59.50
2017-04-07T00:49:35.229Z,59.40
2017-04-07T00:50:38.913Z,56.20
2017-04-07T00:51:43.880Z,55.80
2017-04-07T00:52:47.903Z,57.90
2017-04-07T00:53:52.594Z,60.90
2017-04-07T00:54:56.176Z,60.20
2017-04-07T00:55:59.501Z,60.00
2017-04-07T00:57:04.064Z,57.20
2017-04-07T00:58:08.251Z,58.20
2017-04-07T00:59:11.966Z,60.20
2017-04-07T01:00:16.112Z,59.10
2017-04-07T01:01:20.474Z,59.10
2017-04-07T01:02:24.609Z,59.70
2017-04-07T01:03:28.680Z,59.40
2017-04-07T01:04:32.442Z,60.40
2017-04-07T01:05:36.161Z,60.40
2017-04-07T01:06:39.879Z,59.20
2017-04-07T01:07:43.589Z,60.30
2017-04-07T01:08:47.657Z,61.80
2017-04-07T01:09:51.444Z,60.60
2017-04-07T01:10:55.467Z,61.30
2017-04-07T01:11:59.487Z,61.10
2017-04-07T01:13:03.351Z,62.00
2017-04-07T01:14:07.377Z,62.30
2017-04-07T01:15:11.347Z,62.30
2017-04-07T01:16:15.229Z,61.10
2017-04-07T01:17:19.171Z,62.30
2017-04-07T01:18:22.816Z,62.70
2017-04-07T01:19:26.728Z,60.60
2017-04-07T01:20:30.640Z,61.90
2017-04-07T01:21:34.708Z,62.30
2017-04-07T01:22:38.532Z,63.00
2017-04-07T01:23:43.466Z,62.60
2017-04-07T01:24:47.456Z,61.90
2017-04-07T01:25:51.364Z,62.10
2017-04-07T01:26:55.483Z,61.20
2017-04-07T01:27:59.112Z,61.10
2017-04-07T01:29:03.028Z,60.60
2017-04-07T01:30:06.805Z,60.10
2017-04-07T01:31:10.941Z,60.20
2017-04-07T01:32:15.053Z,61.50
2017-04-07T01:33:18.395Z,60.70
2017-04-07T01:34:22.345Z,61.90
2017-04-07T01:35:26.659Z,61.20
2017-04-07T01:36:31.273Z,60.30
2017-04-07T01:37:35.766Z,60.50
2017-04-07T01:38:39.274Z,60.80
2017-04-07T01:39:43.668Z,61.10
2017-04-07T01:40:47.555Z,61.60
2017-04-07T01:41:51.538Z,61.40
2017-04-07T01:42:55.662Z,61.60
2017-04-07T01:43:59.831Z,61.80
2017-04-07T01:45:03.960Z,62.80
2017-04-07T01:46:07.947Z,60.80
2017-04-07T01:47:11.539Z,61.00
2017-04-07T01:48:15.730Z,61.40
2017-04-07T01:49:19.663Z,62.40
2017-04-07T01:50:23.629Z,63.10
2017-04-07T01:51:27.604Z,63.50
2017-04-07T01:52:33.083Z,64.00
2017-04-07T01:53:37.336Z,64.80
2017-04-07T01:54:41.058Z,64.90
2017-04-07T01:55:44.552Z,65.90
2017-04-07T01:56:48.552Z,65.40
2017-04-07T01:57:53.387Z,65.60
2017-04-07T01:58:57.295Z,65.80
2017-04-07T02:00:00.698Z,66.20
2017-04-07T02:01:04.597Z,66.70
2017-04-07T02:02:08.717Z,67.60
2017-04-07T02:03:13.408Z,67.20
2017-04-07T02:04:17.510Z,67.40
2017-04-07T02:05:21.335Z,67.60
2017-04-07T02:06:25.014Z,67.40
2017-04-07T02:07:28.775Z,68.10
2017-04-07T02:08:32.621Z,68.00
2017-04-07T02:09:36.706Z,67.30
2017-04-07T02:10:40.713Z,67.50
2017-04-07T02:11:44.537Z,67.60
2017-04-07T02:12:48.364Z,67.30
2017-04-07T02:13:52.075Z,67.30
2017-04-07T02:14:55.902Z,68.10
2017-04-07T02:16:00.107Z,68.30
2017-04-07T02:17:04.289Z,68.70
2017-04-07T02:18:08.153Z,68.40
2017-04-07T02:19:12.317Z,68.00
2017-04-07T02:20:16.091Z,67.50
2017-04-07T02:21:20.021Z,67.40
2017-04-07T02:22:23.901Z,66.90
2017-04-07T02:23:27.858Z,66.80
2017-04-07T02:24:32.308Z,66.90
2017-04-07T02:25:36.315Z,67.90
2017-04-07T02:26:40.177Z,67.70
2017-04-07T02:27:44.060Z,67.20
2017-04-07T02:28:47.872Z,67.40
2017-04-07T02:29:51.882Z,67.80
2017-04-07T02:30:55.635Z,67.00
2017-04-07T02:31:59.639Z,66.50
2017-04-07T02:33:03.518Z,67.00
2017-04-07T02:34:08.116Z,67.00
2017-04-07T02:35:11.842Z,67.20
2017-04-07T02:36:15.681Z,67.10
2017-04-07T02:37:19.993Z,66.90
2017-04-07T02:38:23.797Z,67.60
2017-04-07T02:39:27.858Z,67.40
2017-04-07T02:40:31.988Z,67.30
2017-04-07T02:41:36.091Z,67.00
2017-04-07T02:42:40.872Z,67.10
2017-04-07T02:43:44.873Z,66.70
2017-04-07T02:44:48.526Z,66.70
2017-04-07T02:45:52.536Z,66.90
2017-04-07T02:46:56.400Z,67.80
2017-04-07T02:48:01.374Z,67.40
2017-04-07T02:49:05.359Z,67.60
2017-04-07T02:50:09.359Z,67.90
2017-04-07T02:51:13.332Z,67.10
2017-04-07T02:52:17.612Z,68.80
2017-04-07T02:53:22.352Z,67.90
2017-04-07T02:54:26.697Z,67.40
2017-04-07T02:55:30.298Z,67.10
2017-04-07T02:56:33.900Z,68.80
2017-04-07T02:57:37.681Z,68.10
2017-04-07T02:58:41.348Z,69.20
2017-04-07T02:59:45.094Z,68.80
2017-04-07T03:00:49.145Z,68.30
2017-04-07T03:01:53.852Z,67.80
2017-04-07T03:02:57.385Z,68.50
2017-04-07T03:04:01.376Z,67.60
2017-04-07T03:05:05.498Z,67.20
2017-04-07T03:06:10.097Z,67.50
2017-04-07T03:07:14.094Z,68.10
2017-04-07T03:08:18.204Z,67.50
2017-04-07T03:09:22.276Z,67.40
2017-04-07T03:10:25.937Z,67.20
2017-04-07T03:11:29.618Z,68.90
2017-04-07T03:12:33.509Z,68.00
2017-04-07T03:13:37.397Z,68.40
2017-04-07T03:14:41.404Z,68.20
2017-04-07T03:15:45.370Z,68.20
2017-04-07T03:16:48.876Z,69.00
2017-04-07T03:17:53.572Z,69.20
2017-04-07T03:18:57.625Z,69.20
2017-04-07T03:20:00.917Z,69.10
2017-04-07T03:21:04.197Z,70.00
2017-04-07T03:22:07.896Z,70.20
2017-04-07T03:23:11.573Z,71.20
2017-04-07T03:24:15.118Z,71.00
2017-04-07T03:25:19.046Z,70.80
2017-04-07T03:26:22.579Z,72.10
2017-04-07T03:27:26.517Z,72.40
2017-04-07T03:28:30.883Z,72.40
2017-04-07T03:29:34.838Z,72.60
2017-04-07T03:30:38.458Z,72.90
2017-04-07T03:31:42.262Z,73.40
2017-04-07T03:32:46.732Z,72.90
2017-04-07T03:33:50.423Z,73.30
2017-04-07T03:34:54.585Z,73.00
2017-04-07T03:35:58.442Z,72.80
2017-04-07T03:37:02.229Z,72.30
2017-04-07T03:38:06.890Z,71.80
2017-04-07T03:39:10.643Z,71.20
2017-04-07T03:40:14.754Z,71.10
2017-04-07T03:41:18.840Z,71.20
2017-04-07T03:42:22.616Z,71.70
2017-04-07T03:43:26.470Z,73.20
2017-04-07T03:44:30.947Z,72.50
2017-04-07T03:45:34.636Z,72.00
2017-04-07T03:46:38.608Z,71.80
2017-04-07T03:47:42.207Z,71.50
2017-04-07T03:48:46.080Z,72.70
2017-04-07T03:49:50.326Z,72.70
2017-04-07T03:50:54.243Z,72.80
2017-04-07T03:51:57.858Z,73.30
2017-04-07T03:53:01.718Z,73.00
2017-04-07T03:54:06.450Z,73.30
2017-04-07T03:55:10.527Z,74.80
2017-04-07T03:56:14.553Z,75.40
2017-04-07T03:57:18.321Z,75.60
2017-04-07T03:58:21.982Z,77.90
2017-04-07T03:59:26.161Z,78.30
2017-04-07T04:00:30.924Z,78.20
2017-04-07T04:01:35.041Z,77.80
2017-04-07T04:02:39.441Z,77.10
2017-04-07T04:03:43.538Z,78.10
2017-04-07T04:04:47.360Z,77.90
2017-04-07T04:05:51.212Z,78.20
2017-04-07T04:06:55.501Z,77.60
2017-04-07T04:07:59.527Z,77.30
2017-04-07T04:09:03.156Z,78.60
2017-04-07T04:10:07.024Z,78.20
2017-04-07T04:11:10.677Z,77.50
2017-04-07T04:12:14.727Z,77.30
2017-04-07T04:13:19.218Z,77.50
2017-04-07T04:14:23.101Z,77.00
2017-04-07T04:15:26.933Z,77.00
2017-04-07T04:16:35.028Z,75.70
2017-04-07T04:17:39.066Z,76.80
2017-04-07T04:18:43.910Z,77.10
2017-04-07T04:19:48.394Z,75.90
2017-04-07T04:20:52.914Z,76.90
2017-04-07T04:21:57.233Z,76.70
2017-04-07T04:23:01.427Z,76.50
2017-04-07T04:24:05.399Z,76.70
2017-04-07T04:25:09.284Z,78.90
2017-04-07T04:26:12.772Z,78.00
2017-04-07T04:27:17.604Z,77.90
2017-04-07T04:28:21.447Z,77.50
2017-04-07T04:29:25.132Z,77.40
2017-04-07T04:30:28.952Z,75.90
2017-04-07T04:31:33.061Z,76.70
2017-04-07T04:32:36.857Z,75.30
2017-04-07T04:33:40.963Z,74.00
2017-04-07T04:34:45.499Z,73.40
2017-04-07T04:35:49.343Z,73.80
2017-04-07T04:36:53.913Z,74.50
2017-04-07T04:37:57.442Z,74.30
2017-04-07T04:40:04.899Z,71.60
2017-04-07T04:41:08.691Z,72.00
2017-04-07T04:42:12.603Z,71.80
2017-04-07T04:43:16.485Z,72.20
2017-04-07T04:44:19.876Z,72.20
2017-04-07T04:45:23.694Z,71.70
2017-04-07T04:46:27.824Z,72.40
2017-04-07T04:47:31.817Z,71.80
2017-04-07T04:48:35.863Z,71.00
2017-04-07T04:49:39.545Z,70.10
2017-04-07T04:50:43.459Z,69.80
2017-04-07T04:51:47.376Z,69.60
2017-04-07T04:52:51.211Z,68.90
2017-04-07T04:53:54.753Z,68.40
2017-04-07T04:54:59.432Z,68.50
2017-04-07T04:56:03.149Z,68.50
2017-04-07T04:57:06.649Z,68.60
2017-04-07T04:58:10.689Z,69.00
2017-04-07T04:59:14.453Z,68.20
2017-04-07T05:00:18.338Z,67.70
2017-04-07T05:01:22.066Z,66.60
2017-04-07T05:02:25.403Z,66.40
2017-04-07T05:03:29.229Z,66.70
2017-04-07T05:04:33.488Z,67.30
2017-04-07T05:05:37.222Z,66.40
2017-04-07T05:06:42.077Z,66.20
2017-04-07T05:07:45.823Z,66.80
2017-04-07T05:08:49.811Z,65.70
2017-04-07T05:09:53.520Z,66.10
2017-04-07T05:10:57.656Z,67.20
2017-04-07T05:12:01.384Z,66.90
2017-04-07T05:13:05.629Z,66.50
2017-04-07T05:14:09.613Z,64.80
2017-04-07T05:15:13.410Z,65.90
2017-04-07T05:16:17.235Z,66.20
2017-04-07T05:17:21.096Z,66.20
2017-04-07T05:18:24.951Z,66.20
2017-04-07T05:19:28.738Z,67.20
2017-04-07T05:20:32.692Z,67.20
2017-04-07T05:21:36.676Z,66.80
2017-04-07T05:23:43.317Z,68.20
2017-04-07T05:24:47.609Z,66.50
2017-04-07T05:25:51.369Z,68.00
2017-04-07T05:26:54.933Z,69.70
2017-04-07T05:27:58.856Z,70.30
2017-04-07T05:29:02.781Z,71.60
2017-04-07T05:30:07.637Z,70.80
2017-04-07T05:31:11.416Z,70.20
2017-04-07T05:32:15.208Z,74.40
2017-04-07T05:33:18.990Z,72.20
2017-04-07T05:34:22.525Z,73.50
2017-04-07T05:35:28.266Z,75.30
2017-04-07T05:36:32.187Z,74.60
2017-04-07T05:38:12.071Z,71.90
2017-04-07T05:39:24.346Z,75.80
2017-04-07T05:40:33.732Z,78.50
2017-04-07T05:41:46.597Z,77.80
2017-04-07T05:43:14.837Z,78.20
2017-04-07T05:44:18.601Z,77.70
2017-04-07T05:45:22.507Z,78.10
2017-04-07T05:46:25.949Z,81.90
2017-04-07T05:47:29.743Z,82.30
2017-04-07T05:48:33.498Z,84.40
2017-04-07T05:49:38.197Z,89.00
2017-04-07T05:50:42.034Z,88.80
2017-04-07T05:51:45.802Z,90.30
2017-04-07T05:52:49.655Z,91.90
2017-04-07T05:53:54.266Z,90.80
2017-04-07T05:54:58.861Z,93.70
2017-04-07T05:56:02.878Z,95.30
2017-04-07T05:57:06.587Z,96.60
2017-04-07T05:58:10.691Z,97.10
2017-04-07T05:59:15.167Z,97.40
2017-04-07T06:00:19.121Z,97.50
2017-04-07T06:01:22.946Z,98.20
2017-04-07T06:02:26.874Z,98.90
2017-04-07T06:03:32.434Z,99.20
2017-04-07T06:04:36.051Z,99.30
2017-04-07T06:05:40.168Z,98.70
2017-04-07T06:06:45.253Z,99.50
2017-04-07T06:07:49.001Z,99.90
2017-04-07T06:08:52.867Z,99.90
2017-04-07T06:09:57.151Z,99.90
2017-04-07T06:11:00.943Z,99.90
2017-04-07T06:12:04.426Z,99.90
2017-04-07T06:13:08.887Z,99.70
2017-04-07T06:14:13.706Z,99.80
2017-04-07T06:15:17.613Z,99.90
2017-04-07T06:16:22.549Z,99.90
2017-04-07T06:17:26.272Z,99.90
2017-04-07T06:18:30.443Z,99.90
2017-04-07T06:19:34.225Z,99.40
2017-04-07T06:20:37.680Z,99.80
2017-04-07T06:21:41.777Z,99.90
2017-04-07T06:22:45.399Z,99.00
2017-04-07T06:23:49.358Z,97.60
2017-04-07T06:24:53.298Z,97.10
2017-04-07T06:25:57.420Z,97.90
2017-04-07T06:27:01.529Z,97.70
2017-04-07T06:28:05.130Z,96.70
2017-04-07T06:29:08.577Z,95.20
2017-04-07T06:30:12.338Z,95.80
2017-04-07T06:31:16.189Z,98.50
2017-04-07T06:32:19.844Z,99.20
2017-04-07T06:33:23.292Z,97.90
2017-04-07T06:34:27.183Z,97.30
2017-04-07T06:35:31.033Z,97.80
2017-04-07T06:36:34.345Z,97.20
2017-04-07T06:37:38.231Z,96.30
2017-04-07T06:38:42.222Z,95.40
2017-04-07T06:39:46.878Z,94.60
2017-04-07T06:40:50.017Z,94.20
2017-04-07T06:41:54.385Z,93.40
2017-04-07T06:42:58.482Z,93.40
2017-04-07T06:44:02.284Z,93.40
2017-04-07T06:45:06.186Z,92.90
2017-04-07T06:46:09.856Z,94.30
2017-04-07T06:47:13.866Z,97.80
2017-04-07T06:48:17.667Z,99.30
2017-04-07T06:49:21.443Z,99.70
2017-04-07T06:50:25.279Z,99.90
2017-04-07T06:51:28.909Z,99.90
2017-04-07T06:52:33.116Z,98.90
2017-04-07T06:53:37.111Z,98.60
2017-04-07T06:54:40.986Z,97.80
2017-04-07T06:55:46.123Z,97.40
2017-04-07T06:56:50.037Z,97.20
2017-04-07T06:57:54.080Z,95.90
2017-04-07T06:58:58.154Z,95.40
2017-04-07T07:00:02.050Z,94.80
2017-04-07T07:01:05.821Z,95.00
2017-04-07T07:02:10.695Z,94.80
2017-04-07T07:03:14.486Z,95.90
2017-04-07T07:04:19.272Z,96.40
2017-04-07T07:05:23.182Z,96.70
2017-04-07T07:06:27.124Z,99.90
2017-04-07T07:07:30.801Z,99.90
2017-04-07T07:08:34.645Z,99.50
2017-04-07T07:09:38.554Z,98.40
2017-04-07T07:10:41.806Z,99.10
2017-04-07T07:11:45.679Z,99.90
2017-04-07T07:12:49.552Z,99.90
2017-04-07T07:13:53.529Z,99.90
2017-04-07T07:14:57.492Z,99.90
2017-04-07T07:16:01.341Z,99.90
2017-04-07T07:17:05.261Z,98.90
2017-04-07T07:18:08.906Z,98.00
2017-04-07T07:19:12.620Z,97.40
2017-04-07T07:20:16.240Z,97.20
2017-04-07T07:21:20.284Z,96.10
2017-04-07T07:22:23.926Z,96.00
2017-04-07T07:23:27.430Z,97.70
2017-04-07T07:24:31.054Z,99.60
2017-04-07T07:25:34.625Z,99.90
2017-04-07T07:26:38.538Z,99.90
2017-04-07T07:27:42.111Z,99.90
2017-04-07T07:28:45.769Z,98.50
2017-04-07T07:29:49.425Z,98.90
2017-04-07T07:30:53.223Z,99.90
2017-04-07T07:31:58.107Z,99.90
2017-04-07T07:33:02.814Z,99.90
2017-04-07T07:34:06.617Z,99.90
2017-04-07T07:35:10.518Z,99.90
2017-04-07T07:36:14.100Z,99.90
2017-04-07T07:37:18.077Z,99.90
2017-04-07T07:38:21.925Z,99.90
2017-04-07T07:39:25.592Z,99.90
2017-04-07T07:40:29.326Z,99.90
2017-04-07T07:41:33.178Z,99.90
2017-04-07T07:42:36.669Z,99.90
2017-04-07T07:43:40.312Z,99.90
2017-04-07T07:44:44.005Z,99.90
2017-04-07T07:45:48.340Z,99.90
2017-04-07T07:46:52.369Z,99.90
2017-04-07T07:47:56.021Z,99.90
2017-04-07T07:49:00.037Z,99.90
2017-04-07T07:50:04.589Z,99.90
2017-04-07T07:51:08.534Z,99.90
2017-04-07T07:52:12.038Z,99.90
2017-04-07T07:53:15.801Z,99.90
2017-04-07T07:54:19.518Z,99.90
2017-04-07T07:55:23.601Z,99.90
2017-04-07T07:56:28.816Z,99.90
2017-04-07T07:57:32.708Z,99.90
2017-04-07T07:58:36.328Z,99.90
2017-04-07T07:59:39.882Z,99.90
2017-04-07T08:00:43.753Z,99.90
2017-04-07T08:01:47.657Z,99.90
2017-04-07T08:02:51.318Z,99.90
2017-04-07T08:03:54.808Z,99.90
2017-04-07T08:04:58.405Z,99.20
2017-04-07T08:06:02.034Z,98.40
2017-04-07T08:07:05.842Z,98.50
2017-04-07T08:08:12.119Z,98.60
2017-04-07T08:09:16.104Z,99.90
2017-04-07T08:10:19.813Z,99.90
2017-04-07T08:11:23.678Z,99.90
2017-04-07T08:12:27.696Z,99.90
2017-04-07T08:13:31.377Z,99.90
2017-04-07T08:14:34.959Z,99.90
2017-04-07T08:15:39.044Z,99.90
2017-04-07T08:16:42.924Z,99.90
2017-04-07T08:17:46.928Z,99.90
2017-04-07T08:18:50.966Z,99.90
2017-04-07T08:19:54.619Z,99.90
2017-04-07T08:20:58.424Z,99.90
2017-04-07T08:22:02.110Z,99.80
2017-04-07T08:23:06.044Z,99.80
2017-04-07T08:24:10.086Z,98.80
2017-04-07T08:25:14.004Z,98.50
2017-04-07T08:26:17.727Z,99.90
2017-04-07T08:27:22.562Z,99.90
2017-04-07T08:28:26.564Z,99.90
2017-04-07T08:29:30.040Z,99.90
2017-04-07T08:30:35.979Z,99.90
2017-04-07T08:31:39.736Z,99.90
2017-04-07T08:32:43.485Z,99.90
2017-04-07T08:33:47.318Z,99.90
2017-04-07T08:34:51.217Z,99.90
2017-04-07T08:35:55.028Z,99.90
2017-04-07T08:36:58.687Z,99.90
2017-04-07T08:38:02.498Z,99.90
2017-04-07T08:39:07.508Z,99.90
2017-04-07T08:40:11.358Z,99.90
2017-04-07T08:41:15.157Z,99.90
2017-04-07T08:42:18.656Z,99.90
2017-04-07T08:43:22.526Z,99.90
2017-04-07T08:44:26.317Z,99.90
2017-04-07T08:45:30.360Z,98.70
2017-04-07T08:46:33.957Z,99.90
2017-04-07T08:47:37.555Z,99.90
2017-04-07T08:48:41.366Z,99.90
2017-04-07T08:49:45.369Z,99.90
2017-04-07T08:50:49.346Z,99.90
2017-04-07T08:51:52.897Z,99.90
2017-04-07T08:52:56.570Z,99.90
2017-04-07T08:54:00.566Z,99.90
2017-04-07T08:55:04.385Z,99.90
2017-04-07T08:56:07.981Z,99.90
2017-04-07T08:57:13.483Z,99.90
2017-04-07T08:58:17.515Z,99.90
2017-04-07T08:59:21.280Z,99.90
2017-04-07T09:00:25.065Z,99.80
2017-04-07T09:01:28.803Z,99.90
2017-04-07T09:02:32.722Z,99.90
2017-04-07T09:03:36.237Z,99.90
2017-04-07T09:04:40.059Z,99.90
2017-04-07T09:05:44.161Z,99.90
2017-04-07T09:06:48.181Z,99.90
2017-04-07T09:07:52.047Z,99.90
2017-04-07T09:08:55.569Z,99.40
2017-04-07T09:09:58.925Z,99.90
2017-04-07T09:11:03.425Z,99.90
2017-04-07T09:12:07.004Z,99.90
2017-04-07T09:13:10.468Z,99.90
2017-04-07T09:14:14.223Z,99.90
2017-04-07T09:15:17.998Z,99.90
2017-04-07T09:16:22.278Z,99.90
2017-04-07T09:17:25.749Z,99.90
2017-04-07T09:18:29.844Z,99.90
2017-04-07T09:19:33.526Z,99.90
2017-04-07T09:20:37.162Z,99.90
2017-04-07T09:21:40.830Z,99.90
2017-04-07T09:22:44.446Z,99.90
2017-04-07T09:23:48.194Z,99.90
2017-04-07T09:24:51.927Z,99.90
2017-04-07T09:25:55.801Z,99.90
2017-04-07T09:26:59.882Z,99.90
2017-04-07T09:28:03.758Z,99.90
2017-04-07T09:29:07.604Z,99.90
2017-04-07T09:30:11.665Z,99.90
2017-04-07T09:31:16.084Z,99.90
2017-04-07T09:32:19.871Z,99.90
2017-04-07T09:33:23.599Z,99.90
2017-04-07T09:34:27.468Z,99.90
2017-04-07T09:35:31.101Z,99.90
2017-04-07T09:36:34.875Z,99.90
2017-04-07T09:37:38.441Z,99.90
2017-04-07T09:38:42.197Z,99.90
2017-04-07T09:39:46.119Z,99.90
2017-04-07T09:40:49.955Z,99.90
2017-04-07T09:41:53.553Z,99.90
2017-04-07T09:42:57.528Z,99.90
2017-04-07T09:44:01.302Z,99.90
2017-04-07T09:45:05.230Z,99.90
2017-04-07T09:46:09.138Z,99.90
2017-04-07T09:47:12.742Z,99.90
2017-04-07T09:48:16.602Z,99.90
2017-04-07T09:49:20.460Z,99.90
2017-04-07T09:50:24.414Z,99.90
2017-04-07T09:51:28.396Z,99.90
2017-04-07T09:52:32.963Z,99.90
2017-04-07T09:53:36.531Z,99.90
2017-04-07T09:54:40.203Z,99.90
2017-04-07T09:55:43.788Z,99.90
2017-04-07T09:56:47.667Z,99.90
2017-04-07T09:57:52.068Z,99.90
2017-04-07T09:58:55.964Z,99.90
2017-04-07T10:00:00.230Z,99.90
2017-04-07T10:01:04.078Z,99.90
2017-04-07T10:02:08.544Z,99.90
2017-04-07T10:03:12.211Z,99.90
2017-04-07T10:04:15.864Z,99.90
2017-04-07T10:05:19.485Z,99.90
2017-04-07T10:06:23.005Z,99.90
2017-04-07T10:07:26.529Z,99.90
2017-04-07T10:08:30.136Z,99.90
2017-04-07T10:09:34.058Z,99.90
2017-04-07T10:10:38.650Z,99.90
2017-04-07T10:11:42.412Z,99.90
2017-04-07T10:12:46.446Z,99.90
2017-04-07T10:13:49.962Z,99.90
2017-04-07T10:14:53.749Z,99.90
2017-04-07T10:15:57.352Z,99.90
2017-04-07T10:17:01.431Z,99.90
2017-04-07T10:18:05.542Z,99.90
2017-04-07T10:19:09.392Z,99.90
2017-04-07T10:20:13.257Z,99.90
2017-04-07T10:21:16.797Z,99.90
2017-04-07T10:22:20.679Z,99.90
2017-04-07T10:23:24.170Z,99.90
2017-04-07T10:24:28.102Z,99.90
2017-04-07T10:25:31.933Z,99.90
2017-04-07T10:26:35.841Z,99.90
2017-04-07T10:27:39.563Z,99.90
2017-04-07T10:28:43.395Z,99.90
2017-04-07T10:29:47.655Z,99.90
2017-04-07T10:30:51.387Z,99.90
2017-04-07T10:31:54.941Z,99.90
2017-04-07T10:32:58.901Z,99.90
2017-04-07T10:34:03.675Z,99.90
2017-04-07T10:35:07.581Z,99.70
2017-04-07T10:36:11.481Z,99.90
2017-04-07T10:37:15.585Z,99.90
2017-04-07T10:38:19.132Z,99.90
2017-04-07T10:39:23.471Z,99.90
2017-04-07T10:40:27.388Z,99.90
2017-04-07T10:41:30.756Z,99.90
2017-04-07T10:42:34.341Z,99.90
2017-04-07T10:43:37.695Z,99.90
2017-04-07T10:44:41.556Z,99.90
2017-04-07T10:45:45.010Z,99.90
2017-04-07T10:46:48.930Z,99.90
2017-04-07T10:47:52.773Z,99.90
2017-04-07T10:48:56.392Z,99.90
2017-04-07T10:50:00.329Z,99.90
2017-04-07T10:51:05.105Z,99.90
2017-04-07T10:52:08.998Z,99.90
2017-04-07T10:53:12.967Z,99.90
2017-04-07T10:54:17.732Z,99.90
2017-04-07T10:55:21.014Z,99.90
2017-04-07T10:56:24.756Z,99.90
2017-04-07T10:57:28.347Z,99.90
2017-04-07T10:58:33.768Z,99.90
2017-04-07T10:59:37.781Z,99.90
2017-04-07T11:00:41.382Z,99.90
2017-04-07T11:01:45.454Z,99.90
2017-04-07T11:02:50.017Z,99.90
2017-04-07T11:03:53.703Z,99.90
2017-04-07T11:04:57.421Z,99.90
2017-04-07T11:06:01.043Z,99.90
2017-04-07T11:07:04.907Z,99.90
2017-04-07T11:08:08.731Z,99.90
2017-04-07T11:09:12.611Z,99.90
2017-04-07T11:10:16.365Z,99.90
2017-04-07T11:11:19.758Z,99.90
2017-04-07T11:12:22.908Z,99.90
2017-04-07T11:13:26.592Z,99.90
2017-04-07T11:14:30.495Z,99.00
2017-04-07T11:15:34.316Z,98.40
2017-04-07T11:16:38.091Z,98.10
2017-04-07T11:17:41.909Z,96.70
2017-04-07T11:18:45.666Z,96.20
2017-04-07T11:19:49.126Z,95.50
2017-04-07T11:20:52.779Z,95.10
2017-04-07T11:21:57.206Z,95.00
2017-04-07T11:23:01.203Z,96.50
2017-04-07T11:24:04.751Z,96.90
2017-04-07T11:25:09.731Z,96.60
2017-04-07T11:26:14.243Z,96.80
2017-04-07T11:27:18.173Z,97.30
2017-04-07T11:28:22.196Z,98.00
2017-04-07T11:29:31.705Z,99.80
2017-04-07T11:30:35.486Z,99.90
2017-04-07T11:31:39.499Z,99.90
2017-04-07T11:32:43.350Z,99.90
2017-04-07T11:33:47.025Z,99.90
2017-04-07T11:34:51.698Z,99.90
2017-04-07T11:35:55.598Z,99.90
2017-04-07T11:36:59.264Z,99.90
2017-04-07T11:38:03.775Z,99.90
2017-04-07T11:39:07.883Z,99.90
2017-04-07T11:40:11.682Z,99.90
2017-04-07T11:41:15.394Z,99.90
2017-04-07T11:42:19.073Z,99.90
2017-04-07T11:43:22.641Z,99.90
2017-04-07T11:44:26.527Z,99.90
2017-04-07T11:45:30.371Z,99.90
2017-04-07T11:46:34.038Z,99.90
2017-04-07T11:47:37.853Z,99.90
2017-04-07T11:48:41.539Z,99.90
2017-04-07T11:49:44.880Z,99.90
2017-04-07T11:50:48.647Z,99.90
2017-04-07T11:51:52.489Z,99.90
2017-04-07T11:52:56.542Z,99.90
2017-04-07T11:54:00.564Z,98.70
2017-04-07T11:55:04.056Z,97.80
2017-04-07T11:56:07.837Z,98.50
2017-04-07T11:57:12.437Z,99.10
2017-04-07T11:58:16.363Z,99.20
2017-04-07T11:59:20.591Z,97.50
2017-04-07T12:00:24.245Z,97.10
2017-04-07T12:01:28.040Z,99.30
2017-04-07T12:02:31.945Z,99.40
2017-04-07T12:03:35.957Z,99.90
2017-04-07T12:04:39.753Z,99.90
2017-04-07T12:05:43.516Z,99.90
2017-04-07T12:06:47.274Z,99.90
2017-04-07T12:07:51.242Z,99.10
2017-04-07T12:08:55.158Z,99.40
2017-04-07T12:09:58.816Z,99.20
2017-04-07T12:11:02.668Z,99.70
2017-04-07T12:12:07.478Z,98.40
2017-04-07T12:13:11.582Z,98.90
2017-04-07T12:14:16.090Z,98.60
2017-04-07T12:15:19.984Z,98.40
2017-04-07T12:16:23.724Z,98.00
2017-04-07T12:17:27.617Z,97.90
2017-04-07T12:18:31.508Z,98.90
2017-04-07T12:19:35.175Z,98.20
2017-04-07T12:20:39.008Z,99.00
2017-04-07T12:21:42.979Z,99.20
2017-04-07T12:22:47.742Z,99.90
2017-04-07T12:23:51.501Z,99.90
2017-04-07T12:24:55.412Z,99.90
2017-04-07T12:25:59.365Z,99.90
2017-04-07T12:27:03.210Z,99.90
2017-04-07T12:28:06.922Z,99.90
2017-04-07T12:29:10.835Z,99.90
2017-04-07T12:30:14.697Z,99.90
2017-04-07T12:31:18.770Z,99.90
2017-04-07T12:32:22.643Z,99.90
2017-04-07T12:33:26.306Z,99.90
2017-04-07T12:34:30.250Z,99.90
2017-04-07T12:35:34.041Z,99.80
2017-04-07T12:36:37.715Z,99.90
2017-04-07T12:37:41.246Z,99.90
2017-04-07T12:38:45.445Z,97.80
2017-04-07T12:39:50.112Z,97.00
2017-04-07T12:40:54.093Z,97.60
2017-04-07T12:41:57.568Z,97.20
2017-04-07T12:43:01.435Z,97.10
2017-04-07T12:44:05.357Z,96.70
2017-04-07T12:45:08.960Z,96.10
2017-04-07T12:46:12.707Z,96.60
2017-04-07T12:47:16.505Z,98.30
2017-04-07T12:48:20.393Z,98.30
2017-04-07T12:49:24.346Z,98.40
2017-04-07T12:50:28.312Z,99.60
2017-04-07T12:51:32.517Z,99.90
2017-04-07T12:52:35.863Z,99.90
2017-04-07T12:53:39.020Z,99.90
2017-04-07T12:54:42.786Z,99.90
2017-04-07T12:55:46.590Z,99.90
2017-04-07T12:56:50.728Z,99.90
2017-04-07T12:57:54.171Z,99.90
2017-04-07T12:58:58.071Z,99.90
2017-04-07T13:00:02.932Z,99.90
2017-04-07T13:01:07.029Z,99.20
2017-04-07T13:02:11.012Z,95.20
2017-04-07T13:03:14.869Z,92.10
2017-04-07T13:04:18.805Z,91.90
2017-04-07T13:05:22.815Z,93.10
2017-04-07T13:06:27.263Z,92.10
2017-04-07T13:07:30.933Z,93.30
2017-04-07T13:08:34.586Z,92.30
2017-04-07T13:09:38.924Z,91.90
2017-04-07T13:10:42.636Z,91.40
2017-04-07T13:11:46.331Z,90.70
2017-04-07T13:12:50.193Z,91.40
2017-04-07T13:13:54.200Z,91.40
2017-04-07T13:14:58.013Z,92.00
2017-04-07T13:16:01.794Z,80.40
2017-04-07T13:17:05.777Z,80.40
2017-04-07T13:18:09.404Z,78.60
2017-04-07T13:19:13.351Z,78.50
2017-04-07T13:20:17.087Z,77.90
2017-04-07T13:21:20.585Z,75.00
2017-04-07T13:22:24.456Z,75.20
2017-04-07T13:23:29.001Z,76.80
2017-04-07T13:24:32.996Z,77.30
2017-04-07T13:25:36.835Z,78.80
2017-04-07T13:26:40.780Z,76.80
2017-04-07T13:27:46.153Z,75.70
2017-04-07T13:28:50.502Z,74.20
2017-04-07T13:29:54.082Z,69.30
2017-04-07T13:30:58.017Z,73.00
2017-04-07T13:32:02.034Z,71.30
2017-04-07T13:33:05.916Z,72.00
2017-04-07T13:34:09.517Z,70.50
2017-04-07T13:36:16.546Z,74.00
2017-04-07T13:37:20.351Z,71.20
2017-04-07T13:38:23.722Z,71.60
2017-04-07T13:39:27.892Z,72.90
2017-04-07T13:40:31.852Z,70.80
2017-04-07T13:41:35.536Z,71.30
2017-04-07T13:42:39.049Z,73.60
2017-04-07T13:43:42.826Z,72.80
2017-04-07T13:44:46.533Z,73.50
2017-04-07T13:45:50.469Z,72.30
2017-04-07T13:46:54.262Z,67.00
2017-04-07T13:47:58.032Z,68.50